sensor_id;sensor_type;location;lat;lon;timestamp;P1;durP1;ratioP1;P2;durP2;ratioP2
2408;SDS011;8463;48.094;7.970;2023-05-03T00:02:05;4.97;;;4.30;;
2408;SDS011;8463;48.094;7.970;2023-05-03T00:04:31;5.57;;;4.23;;
2408;SDS011;8463;48.094;7.970;2023-05-03T00:06:57;4.30;;;3.90;;
2408;SDS011;8463;48.094;7.970;2023-05-03T00:09:22;5.83;;;3.87;;
2408;SDS011;8463;48.094;7.970;2023-05-03T00:11:51;5.77;;;4.70;;
2408;SDS011;8463;48.094;7.970;2023-05-03T00:14:20;4.10;;;3.70;;
2408;SDS011;8463;48.094;7.970;2023-05-03T00:16:45;4.57;;;3.50;;
2408;SDS011;8463;48.094;7.970;2023-05-03T00:19:11;4.33;;;3.93;;
2408;SDS011;8463;48.094;7.970;2023-05-03T00:21:39;5.33;;;3.90;;
2408;SDS011;8463;48.094;7.970;2023-05-03T00:24:05;5.50;;;3.87;;
2408;SDS011;8463;48.094;7.970;2023-05-03T00:26:31;4.40;;;3.60;;
2408;SDS011;8463;48.094;7.970;2023-05-03T00:29:01;4.83;;;3.83;;
2408;SDS011;8463;48.094;7.970;2023-05-03T00:31:26;4.57;;;4.17;;
2408;SDS011;8463;48.094;7.970;2023-05-03T00:33:52;3.30;;;2.93;;
2408;SDS011;8463;48.094;7.970;2023-05-03T00:36:21;4.57;;;3.47;;
2408;SDS011;8463;48.094;7.970;2023-05-03T00:38:49;5.57;;;3.50;;
2408;SDS011;8463;48.094;7.970;2023-05-03T00:41:15;6.80;;;3.67;;
2408;SDS011;8463;48.094;7.970;2023-05-03T00:43:44;8.60;;;3.90;;
2408;SDS011;8463;48.094;7.970;2023-05-03T00:46:12;4.70;;;3.30;;
2408;SDS011;8463;48.094;7.970;2023-05-03T00:48:40;3.60;;;3.00;;
2408;SDS011;8463;48.094;7.970;2023-05-03T00:51:08;3.90;;;3.50;;
2408;SDS011;8463;48.094;7.970;2023-05-03T00:53:38;5.83;;;3.60;;
2408;SDS011;8463;48.094;7.970;2023-05-03T00:56:04;4.67;;;3.50;;
2408;SDS011;8463;48.094;7.970;2023-05-03T00:58:34;5.40;;;4.13;;
2408;SDS011;8463;48.094;7.970;2023-05-03T01:01:04;5.60;;;4.10;;
2408;SDS011;8463;48.094;7.970;2023-05-03T01:03:40;4.50;;;3.73;;
2408;SDS011;8463;48.094;7.970;2023-05-03T01:06:12;8.23;;;4.20;;
2408;SDS011;8463;48.094;7.970;2023-05-03T01:09:00;4.30;;;3.40;;
2408;SDS011;8463;48.094;7.970;2023-05-03T01:11:44;5.43;;;3.43;;
2408;SDS011;8463;48.094;7.970;2023-05-03T01:14:19;4.60;;;3.83;;
2408;SDS011;8463;48.094;7.970;2023-05-03T01:17:03;4.83;;;3.53;;
2408;SDS011;8463;48.094;7.970;2023-05-03T01:19:50;4.40;;;4.00;;
2408;SDS011;8463;48.094;7.970;2023-05-03T01:22:31;3.63;;;2.93;;
2408;SDS011;8463;48.094;7.970;2023-05-03T01:25:07;7.27;;;4.63;;
2408;SDS011;8463;48.094;7.970;2023-05-03T01:27:34;5.07;;;3.63;;
2408;SDS011;8463;48.094;7.970;2023-05-03T01:30:04;4.33;;;3.20;;
2408;SDS011;8463;48.094;7.970;2023-05-03T01:35:36;3.97;;;2.80;;
2408;SDS011;8463;48.094;7.970;2023-05-03T01:38:10;4.30;;;3.30;;
2408;SDS011;8463;48.094;7.970;2023-05-03T01:43:36;4.73;;;3.60;;
2408;SDS011;8463;48.094;7.970;2023-05-03T01:46:11;4.10;;;3.53;;
2408;SDS011;8463;48.094;7.970;2023-05-03T01:48:37;4.43;;;3.40;;
2408;SDS011;8463;48.094;7.970;2023-05-03T01:51:03;3.43;;;3.13;;
2408;SDS011;8463;48.094;7.970;2023-05-03T01:53:29;5.07;;;2.90;;
2408;SDS011;8463;48.094;7.970;2023-05-03T01:55:55;2.90;;;2.60;;
2408;SDS011;8463;48.094;7.970;2023-05-03T01:58:25;5.13;;;4.10;;
2408;SDS011;8463;48.094;7.970;2023-05-03T02:00:51;4.43;;;3.20;;
2408;SDS011;8463;48.094;7.970;2023-05-03T02:03:16;5.40;;;4.10;;
2408;SDS011;8463;48.094;7.970;2023-05-03T02:05:43;4.20;;;3.37;;
2408;SDS011;8463;48.094;7.970;2023-05-03T02:08:08;8.07;;;4.10;;
2408;SDS011;8463;48.094;7.970;2023-05-03T02:10:43;5.07;;;3.87;;
2408;SDS011;8463;48.094;7.970;2023-05-03T02:13:08;4.23;;;3.67;;
2408;SDS011;8463;48.094;7.970;2023-05-03T02:15:34;5.93;;;3.77;;
2408;SDS011;8463;48.094;7.970;2023-05-03T02:18:00;5.40;;;4.07;;
2408;SDS011;8463;48.094;7.970;2023-05-03T02:20:27;6.00;;;4.57;;
2408;SDS011;8463;48.094;7.970;2023-05-03T02:22:53;4.27;;;3.57;;
2408;SDS011;8463;48.094;7.970;2023-05-03T02:25:18;4.23;;;3.47;;
2408;SDS011;8463;48.094;7.970;2023-05-03T02:27:46;6.27;;;3.97;;
2408;SDS011;8463;48.094;7.970;2023-05-03T02:30:11;4.93;;;3.50;;
2408;SDS011;8463;48.094;7.970;2023-05-03T02:32:37;5.33;;;3.63;;
2408;SDS011;8463;48.094;7.970;2023-05-03T02:35:03;3.80;;;2.77;;
2408;SDS011;8463;48.094;7.970;2023-05-03T02:37:29;5.00;;;3.37;;
2408;SDS011;8463;48.094;7.970;2023-05-03T02:39:54;4.43;;;3.77;;
2408;SDS011;8463;48.094;7.970;2023-05-03T02:42:20;4.40;;;3.60;;
2408;SDS011;8463;48.094;7.970;2023-05-03T02:44:46;4.20;;;3.57;;
2408;SDS011;8463;48.094;7.970;2023-05-03T02:47:12;4.70;;;3.70;;
2408;SDS011;8463;48.094;7.970;2023-05-03T02:49:38;4.00;;;3.60;;
2408;SDS011;8463;48.094;7.970;2023-05-03T02:52:03;4.33;;;3.20;;
2408;SDS011;8463;48.094;7.970;2023-05-03T02:54:29;5.47;;;3.73;;
2408;SDS011;8463;48.094;7.970;2023-05-03T02:56:55;4.93;;;3.50;;
2408;SDS011;8463;48.094;7.970;2023-05-03T02:59:20;4.60;;;3.50;;
2408;SDS011;8463;48.094;7.970;2023-05-03T03:01:46;5.43;;;3.80;;
2408;SDS011;8463;48.094;7.970;2023-05-03T03:04:13;7.03;;;3.97;;
2408;SDS011;8463;48.094;7.970;2023-05-03T03:06:39;4.53;;;3.60;;
2408;SDS011;8463;48.094;7.970;2023-05-03T03:09:05;4.10;;;3.40;;
2408;SDS011;8463;48.094;7.970;2023-05-03T03:11:31;6.63;;;3.80;;
2408;SDS011;8463;48.094;7.970;2023-05-03T03:13:57;6.10;;;3.67;;
2408;SDS011;8463;48.094;7.970;2023-05-03T03:16:22;4.13;;;3.23;;
2408;SDS011;8463;48.094;7.970;2023-05-03T03:18:50;3.60;;;3.07;;
2408;SDS011;8463;48.094;7.970;2023-05-03T03:21:18;5.00;;;3.43;;
2408;SDS011;8463;48.094;7.970;2023-05-03T03:23:43;4.43;;;2.80;;
2408;SDS011;8463;48.094;7.970;2023-05-03T03:26:10;5.63;;;3.97;;
2408;SDS011;8463;48.094;7.970;2023-05-03T03:28:36;5.83;;;5.00;;
2408;SDS011;8463;48.094;7.970;2023-05-03T03:31:02;5.43;;;3.80;;
2408;SDS011;8463;48.094;7.970;2023-05-03T03:33:27;5.37;;;4.87;;
2408;SDS011;8463;48.094;7.970;2023-05-03T03:35:53;5.70;;;4.77;;
2408;SDS011;8463;48.094;7.970;2023-05-03T03:38:19;6.00;;;4.60;;
2408;SDS011;8463;48.094;7.970;2023-05-03T03:40:44;6.20;;;4.90;;
2408;SDS011;8463;48.094;7.970;2023-05-03T03:43:10;7.03;;;6.00;;
2408;SDS011;8463;48.094;7.970;2023-05-03T03:45:38;4.83;;;3.60;;
2408;SDS011;8463;48.094;7.970;2023-05-03T03:48:04;9.77;;;5.60;;
2408;SDS011;8463;48.094;7.970;2023-05-03T03:50:30;5.80;;;3.73;;
2408;SDS011;8463;48.094;7.970;2023-05-03T03:52:55;6.30;;;4.57;;
2408;SDS011;8463;48.094;7.970;2023-05-03T03:55:21;6.00;;;4.50;;
2408;SDS011;8463;48.094;7.970;2023-05-03T03:57:46;4.30;;;3.57;;
2408;SDS011;8463;48.094;7.970;2023-05-03T04:00:12;6.83;;;5.00;;
2408;SDS011;8463;48.094;7.970;2023-05-03T04:02:38;5.43;;;4.07;;
2408;SDS011;8463;48.094;7.970;2023-05-03T04:05:04;7.97;;;4.37;;
2408;SDS011;8463;48.094;7.970;2023-05-03T04:07:30;6.63;;;4.30;;
2408;SDS011;8463;48.094;7.970;2023-05-03T04:09:56;4.03;;;3.33;;
2408;SDS011;8463;48.094;7.970;2023-05-03T04:12:22;4.20;;;3.80;;
2408;SDS011;8463;48.094;7.970;2023-05-03T04:14:48;4.10;;;3.70;;
2408;SDS011;8463;48.094;7.970;2023-05-03T04:17:15;9.10;;;4.00;;
2408;SDS011;8463;48.094;7.970;2023-05-03T04:19:40;5.00;;;3.47;;
2408;SDS011;8463;48.094;7.970;2023-05-03T04:22:06;6.20;;;4.33;;
2408;SDS011;8463;48.094;7.970;2023-05-03T04:24:34;5.80;;;4.30;;
2408;SDS011;8463;48.094;7.970;2023-05-03T04:27:03;4.93;;;4.43;;
2408;SDS011;8463;48.094;7.970;2023-05-03T04:29:29;8.23;;;4.50;;
2408;SDS011;8463;48.094;7.970;2023-05-03T04:31:55;6.73;;;4.77;;
2408;SDS011;8463;48.094;7.970;2023-05-03T04:34:22;5.07;;;3.73;;
2408;SDS011;8463;48.094;7.970;2023-05-03T04:36:48;6.30;;;4.10;;
2408;SDS011;8463;48.094;7.970;2023-05-03T04:39:14;3.93;;;3.53;;
2408;SDS011;8463;48.094;7.970;2023-05-03T04:41:40;5.10;;;3.73;;
2408;SDS011;8463;48.094;7.970;2023-05-03T04:44:06;5.67;;;4.13;;
2408;SDS011;8463;48.094;7.970;2023-05-03T04:46:32;5.90;;;4.63;;
2408;SDS011;8463;48.094;7.970;2023-05-03T04:48:57;5.43;;;3.63;;
2408;SDS011;8463;48.094;7.970;2023-05-03T04:51:23;6.47;;;4.07;;
2408;SDS011;8463;48.094;7.970;2023-05-03T04:53:49;6.50;;;4.07;;
2408;SDS011;8463;48.094;7.970;2023-05-03T04:56:15;5.93;;;3.77;;
2408;SDS011;8463;48.094;7.970;2023-05-03T04:58:40;5.37;;;4.40;;
2408;SDS011;8463;48.094;7.970;2023-05-03T05:01:09;4.97;;;4.00;;
2408;SDS011;8463;48.094;7.970;2023-05-03T05:03:34;5.57;;;4.60;;
2408;SDS011;8463;48.094;7.970;2023-05-03T05:06:00;5.43;;;3.50;;
2408;SDS011;8463;48.094;7.970;2023-05-03T05:08:29;6.87;;;4.23;;
2408;SDS011;8463;48.094;7.970;2023-05-03T05:10:57;7.23;;;4.00;;
2408;SDS011;8463;48.094;7.970;2023-05-03T05:13:22;6.27;;;4.43;;
2408;SDS011;8463;48.094;7.970;2023-05-03T05:15:48;6.67;;;5.17;;
2408;SDS011;8463;48.094;7.970;2023-05-03T05:18:14;4.30;;;3.73;;
2408;SDS011;8463;48.094;7.970;2023-05-03T05:20:39;6.83;;;4.33;;
2408;SDS011;8463;48.094;7.970;2023-05-03T05:23:08;6.10;;;4.70;;
2408;SDS011;8463;48.094;7.970;2023-05-03T05:25:33;6.60;;;4.40;;
2408;SDS011;8463;48.094;7.970;2023-05-03T05:27:59;6.30;;;4.30;;
2408;SDS011;8463;48.094;7.970;2023-05-03T05:30:25;6.47;;;4.47;;
2408;SDS011;8463;48.094;7.970;2023-05-03T05:32:53;5.77;;;4.37;;
2408;SDS011;8463;48.094;7.970;2023-05-03T05:35:19;6.00;;;4.17;;
2408;SDS011;8463;48.094;7.970;2023-05-03T05:37:45;4.40;;;4.00;;
2408;SDS011;8463;48.094;7.970;2023-05-03T05:40:11;4.63;;;4.03;;
2408;SDS011;8463;48.094;7.970;2023-05-03T05:42:37;8.40;;;5.07;;
2408;SDS011;8463;48.094;7.970;2023-05-03T05:45:02;5.33;;;4.33;;
2408;SDS011;8463;48.094;7.970;2023-05-03T05:47:28;8.33;;;5.30;;
2408;SDS011;8463;48.094;7.970;2023-05-03T05:49:54;8.83;;;5.17;;
2408;SDS011;8463;48.094;7.970;2023-05-03T05:52:20;10.67;;;5.03;;
2408;SDS011;8463;48.094;7.970;2023-05-03T05:54:49;7.77;;;6.40;;
2408;SDS011;8463;48.094;7.970;2023-05-03T05:57:16;8.33;;;6.90;;
2408;SDS011;8463;48.094;7.970;2023-05-03T05:59:44;8.83;;;6.77;;
2408;SDS011;8463;48.094;7.970;2023-05-03T06:02:12;8.43;;;6.50;;
2408;SDS011;8463;48.094;7.970;2023-05-03T06:04:40;10.90;;;8.10;;
2408;SDS011;8463;48.094;7.970;2023-05-03T06:07:07;11.47;;;7.67;;
2408;SDS011;8463;48.094;7.970;2023-05-03T06:09:33;9.37;;;8.07;;
2408;SDS011;8463;48.094;7.970;2023-05-03T06:11:58;11.60;;;7.63;;
2408;SDS011;8463;48.094;7.970;2023-05-03T06:14:25;9.97;;;7.67;;
2408;SDS011;8463;48.094;7.970;2023-05-03T06:16:50;9.63;;;7.27;;
2408;SDS011;8463;48.094;7.970;2023-05-03T06:19:16;8.03;;;6.60;;
2408;SDS011;8463;48.094;7.970;2023-05-03T06:21:42;13.23;;;8.83;;
2408;SDS011;8463;48.094;7.970;2023-05-03T06:24:07;7.73;;;6.20;;
2408;SDS011;8463;48.094;7.970;2023-05-03T06:26:33;10.43;;;7.37;;
2408;SDS011;8463;48.094;7.970;2023-05-03T06:28:59;12.07;;;8.00;;
2408;SDS011;8463;48.094;7.970;2023-05-03T06:31:24;9.20;;;7.73;;
2408;SDS011;8463;48.094;7.970;2023-05-03T06:33:51;10.57;;;7.60;;
2408;SDS011;8463;48.094;7.970;2023-05-03T06:36:16;10.50;;;8.33;;
2408;SDS011;8463;48.094;7.970;2023-05-03T06:38:42;10.27;;;7.77;;
2408;SDS011;8463;48.094;7.970;2023-05-03T06:41:07;10.57;;;8.97;;
2408;SDS011;8463;48.094;7.970;2023-05-03T06:43:33;10.00;;;8.53;;
2408;SDS011;8463;48.094;7.970;2023-05-03T06:45:59;9.97;;;8.60;;
2408;SDS011;8463;48.094;7.970;2023-05-03T06:48:27;11.80;;;8.80;;
2408;SDS011;8463;48.094;7.970;2023-05-03T06:50:53;10.63;;;8.30;;
2408;SDS011;8463;48.094;7.970;2023-05-03T06:53:19;11.83;;;8.40;;
2408;SDS011;8463;48.094;7.970;2023-05-03T06:55:45;9.90;;;8.07;;
2408;SDS011;8463;48.094;7.970;2023-05-03T06:58:16;9.73;;;8.77;;
2408;SDS011;8463;48.094;7.970;2023-05-03T07:00:42;11.07;;;8.40;;
2408;SDS011;8463;48.094;7.970;2023-05-03T07:03:08;10.70;;;8.50;;
2408;SDS011;8463;48.094;7.970;2023-05-03T07:05:33;10.80;;;7.47;;
2408;SDS011;8463;48.094;7.970;2023-05-03T07:07:59;8.83;;;7.10;;
2408;SDS011;8463;48.094;7.970;2023-05-03T07:10:25;10.97;;;8.63;;
2408;SDS011;8463;48.094;7.970;2023-05-03T07:12:55;11.30;;;7.50;;
2408;SDS011;8463;48.094;7.970;2023-05-03T07:15:21;8.63;;;7.23;;
2408;SDS011;8463;48.094;7.970;2023-05-03T07:17:47;9.70;;;8.00;;
2408;SDS011;8463;48.094;7.970;2023-05-03T07:20:13;9.40;;;8.43;;
2408;SDS011;8463;48.094;7.970;2023-05-03T07:22:40;11.90;;;7.90;;
2408;SDS011;8463;48.094;7.970;2023-05-03T07:25:06;11.53;;;7.60;;
2408;SDS011;8463;48.094;7.970;2023-05-03T07:27:32;9.40;;;8.40;;
2408;SDS011;8463;48.094;7.970;2023-05-03T07:29:57;11.30;;;7.80;;
2408;SDS011;8463;48.094;7.970;2023-05-03T07:32:24;10.30;;;8.20;;
2408;SDS011;8463;48.094;7.970;2023-05-03T07:34:50;8.87;;;8.00;;
2408;SDS011;8463;48.094;7.970;2023-05-03T07:37:15;9.53;;;7.30;;
2408;SDS011;8463;48.094;7.970;2023-05-03T07:39:42;11.57;;;6.50;;
2408;SDS011;8463;48.094;7.970;2023-05-03T07:42:10;10.63;;;8.00;;
2408;SDS011;8463;48.094;7.970;2023-05-03T07:44:36;11.23;;;7.10;;
2408;SDS011;8463;48.094;7.970;2023-05-03T07:47:01;9.30;;;7.00;;
2408;SDS011;8463;48.094;7.970;2023-05-03T07:49:27;8.13;;;7.30;;
2408;SDS011;8463;48.094;7.970;2023-05-03T07:51:53;7.00;;;6.23;;
2408;SDS011;8463;48.094;7.970;2023-05-03T07:54:18;7.83;;;7.03;;
2408;SDS011;8463;48.094;7.970;2023-05-03T07:56:44;13.37;;;8.70;;
2408;SDS011;8463;48.094;7.970;2023-05-03T07:59:09;10.47;;;8.00;;
2408;SDS011;8463;48.094;7.970;2023-05-03T08:01:35;9.47;;;7.70;;
2408;SDS011;8463;48.094;7.970;2023-05-03T08:04:03;10.60;;;7.50;;
2408;SDS011;8463;48.094;7.970;2023-05-03T08:06:32;9.00;;;7.00;;
2408;SDS011;8463;48.094;7.970;2023-05-03T08:08:59;8.97;;;6.53;;
2408;SDS011;8463;48.094;7.970;2023-05-03T08:11:28;7.53;;;6.00;;
2408;SDS011;8463;48.094;7.970;2023-05-03T08:13:54;8.47;;;6.00;;
2408;SDS011;8463;48.094;7.970;2023-05-03T08:16:20;7.23;;;6.07;;
2408;SDS011;8463;48.094;7.970;2023-05-03T08:18:45;6.30;;;5.50;;
2408;SDS011;8463;48.094;7.970;2023-05-03T08:21:17;8.37;;;7.50;;
2408;SDS011;8463;48.094;7.970;2023-05-03T08:23:43;7.27;;;5.70;;
2408;SDS011;8463;48.094;7.970;2023-05-03T08:26:08;10.40;;;5.80;;
2408;SDS011;8463;48.094;7.970;2023-05-03T08:28:34;8.10;;;6.33;;
2408;SDS011;8463;48.094;7.970;2023-05-03T08:31:00;7.70;;;6.60;;
2408;SDS011;8463;48.094;7.970;2023-05-03T08:33:31;8.37;;;7.20;;
2408;SDS011;8463;48.094;7.970;2023-05-03T08:35:56;9.40;;;6.87;;
2408;SDS011;8463;48.094;7.970;2023-05-03T08:38:22;8.43;;;7.53;;
2408;SDS011;8463;48.094;7.970;2023-05-03T08:40:48;8.57;;;7.73;;
2408;SDS011;8463;48.094;7.970;2023-05-03T08:43:19;11.60;;;7.40;;
2408;SDS011;8463;48.094;7.970;2023-05-03T08:45:45;11.40;;;8.30;;
2408;SDS011;8463;48.094;7.970;2023-05-03T08:48:21;8.40;;;7.07;;
2408;SDS011;8463;48.094;7.970;2023-05-03T08:50:47;9.47;;;7.27;;
2408;SDS011;8463;48.094;7.970;2023-05-03T08:53:15;7.40;;;6.70;;
2408;SDS011;8463;48.094;7.970;2023-05-03T08:55:41;7.23;;;6.43;;
2408;SDS011;8463;48.094;7.970;2023-05-03T08:58:06;7.77;;;6.97;;
2408;SDS011;8463;48.094;7.970;2023-05-03T09:00:36;9.73;;;7.80;;
2408;SDS011;8463;48.094;7.970;2023-05-03T09:03:08;10.17;;;7.77;;
2408;SDS011;8463;48.094;7.970;2023-05-03T09:05:35;11.70;;;7.73;;
2408;SDS011;8463;48.094;7.970;2023-05-03T09:08:09;7.13;;;6.50;;
2408;SDS011;8463;48.094;7.970;2023-05-03T09:10:41;9.83;;;7.33;;
2408;SDS011;8463;48.094;7.970;2023-05-03T09:13:07;9.70;;;8.30;;
2408;SDS011;8463;48.094;7.970;2023-05-03T09:15:35;7.60;;;6.80;;
2408;SDS011;8463;48.094;7.970;2023-05-03T09:18:17;7.83;;;7.03;;
2408;SDS011;8463;48.094;7.970;2023-05-03T09:20:44;7.40;;;5.97;;
2408;SDS011;8463;48.094;7.970;2023-05-03T09:23:16;7.90;;;5.63;;
2408;SDS011;8463;48.094;7.970;2023-05-03T09:25:51;7.60;;;6.40;;
2408;SDS011;8463;48.094;7.970;2023-05-03T09:28:17;6.90;;;6.20;;
2408;SDS011;8463;48.094;7.970;2023-05-03T09:30:44;8.93;;;6.10;;
2408;SDS011;8463;48.094;7.970;2023-05-03T09:33:11;7.50;;;6.77;;
2408;SDS011;8463;48.094;7.970;2023-05-03T09:35:54;7.37;;;6.60;;
2408;SDS011;8463;48.094;7.970;2023-05-03T09:38:30;7.77;;;6.50;;
2408;SDS011;8463;48.094;7.970;2023-05-03T09:40:58;9.13;;;6.10;;
2408;SDS011;8463;48.094;7.970;2023-05-03T09:43:29;6.43;;;5.30;;
2408;SDS011;8463;48.094;7.970;2023-05-03T09:46:11;6.87;;;6.17;;
2408;SDS011;8463;48.094;7.970;2023-05-03T09:48:37;6.07;;;5.47;;
2408;SDS011;8463;48.094;7.970;2023-05-03T09:51:05;5.93;;;5.33;;
2408;SDS011;8463;48.094;7.970;2023-05-03T09:53:31;4.90;;;4.40;;
2408;SDS011;8463;48.094;7.970;2023-05-03T09:56:01;4.77;;;4.33;;
2408;SDS011;8463;48.094;7.970;2023-05-03T09:58:27;5.50;;;5.00;;
2408;SDS011;8463;48.094;7.970;2023-05-03T10:00:55;4.20;;;3.80;;
2408;SDS011;8463;48.094;7.970;2023-05-03T10:03:21;2.80;;;2.60;;
2408;SDS011;8463;48.094;7.970;2023-05-03T10:05:57;2.17;;;2.07;;
2408;SDS011;8463;48.094;7.970;2023-05-03T10:11:00;2.47;;;2.10;;
2408;SDS011;8463;48.094;7.970;2023-05-03T10:13:27;2.00;;;1.80;;
2408;SDS011;8463;48.094;7.970;2023-05-03T10:16:01;3.47;;;3.13;;
2408;SDS011;8463;48.094;7.970;2023-05-03T10:18:33;2.13;;;1.93;;
2408;SDS011;8463;48.094;7.970;2023-05-03T10:21:07;2.63;;;1.87;;
2408;SDS011;8463;48.094;7.970;2023-05-03T10:24:12;2.00;;;1.80;;
2408;SDS011;8463;48.094;7.970;2023-05-03T10:26:41;3.40;;;2.43;;
2408;SDS011;8463;48.094;7.970;2023-05-03T10:37:34;2.10;;;1.90;;
2408;SDS011;8463;48.094;7.970;2023-05-03T10:40:11;3.77;;;2.13;;
2408;SDS011;8463;48.094;7.970;2023-05-03T10:42:39;1.80;;;1.70;;
2408;SDS011;8463;48.094;7.970;2023-05-03T10:45:18;2.43;;;2.27;;
2408;SDS011;8463;48.094;7.970;2023-05-03T10:50:41;1.77;;;1.67;;
2408;SDS011;8463;48.094;7.970;2023-05-03T10:53:07;3.00;;;2.07;;
2408;SDS011;8463;48.094;7.970;2023-05-03T10:58:47;2.23;;;1.90;;
2408;SDS011;8463;48.094;7.970;2023-05-03T11:01:19;3.50;;;1.90;;
2408;SDS011;8463;48.094;7.970;2023-05-03T11:06:42;2.10;;;1.90;;
2408;SDS011;8463;48.094;7.970;2023-05-03T11:09:09;2.40;;;2.03;;
2408;SDS011;8463;48.094;7.970;2023-05-03T11:11:38;2.00;;;1.90;;
2408;SDS011;8463;48.094;7.970;2023-05-03T11:14:05;2.37;;;1.70;;
2408;SDS011;8463;48.094;7.970;2023-05-03T11:16:32;2.20;;;2.03;;
2408;SDS011;8463;48.094;7.970;2023-05-03T11:19:13;2.10;;;1.90;;
2408;SDS011;8463;48.094;7.970;2023-05-03T11:21:39;2.23;;;1.80;;
2408;SDS011;8463;48.094;7.970;2023-05-03T11:24:06;6.93;;;2.17;;
2408;SDS011;8463;48.094;7.970;2023-05-03T11:26:52;2.00;;;1.73;;
2408;SDS011;8463;48.094;7.970;2023-05-03T11:29:18;1.87;;;1.67;;
2408;SDS011;8463;48.094;7.970;2023-05-03T11:31:51;6.83;;;2.50;;
2408;SDS011;8463;48.094;7.970;2023-05-03T11:34:17;2.60;;;2.13;;
2408;SDS011;8463;48.094;7.970;2023-05-03T11:36:43;2.00;;;1.80;;
2408;SDS011;8463;48.094;7.970;2023-05-03T11:39:10;1.93;;;1.73;;
2408;SDS011;8463;48.094;7.970;2023-05-03T11:41:40;3.53;;;1.90;;
2408;SDS011;8463;48.094;7.970;2023-05-03T11:44:08;4.70;;;1.97;;
2408;SDS011;8463;48.094;7.970;2023-05-03T11:46:34;2.90;;;2.17;;
2408;SDS011;8463;48.094;7.970;2023-05-03T11:49:02;1.83;;;1.70;;
2408;SDS011;8463;48.094;7.970;2023-05-03T11:51:28;2.50;;;1.63;;
2408;SDS011;8463;48.094;7.970;2023-05-03T11:53:59;2.43;;;2.20;;
2408;SDS011;8463;48.094;7.970;2023-05-03T11:56:27;3.40;;;2.37;;
2408;SDS011;8463;48.094;7.970;2023-05-03T11:58:59;2.00;;;1.90;;
2408;SDS011;8463;48.094;7.970;2023-05-03T12:01:26;3.30;;;3.00;;
2408;SDS011;8463;48.094;7.970;2023-05-03T12:03:53;2.20;;;1.80;;
2408;SDS011;8463;48.094;7.970;2023-05-03T12:06:22;2.00;;;1.80;;
2408;SDS011;8463;48.094;7.970;2023-05-03T12:08:49;2.20;;;2.00;;
2408;SDS011;8463;48.094;7.970;2023-05-03T12:11:18;2.00;;;1.80;;
2408;SDS011;8463;48.094;7.970;2023-05-03T12:13:43;1.97;;;1.87;;
2408;SDS011;8463;48.094;7.970;2023-05-03T12:16:14;2.70;;;1.80;;
2408;SDS011;8463;48.094;7.970;2023-05-03T12:18:46;2.10;;;1.97;;
2408;SDS011;8463;48.094;7.970;2023-05-03T12:21:18;2.20;;;2.00;;
2408;SDS011;8463;48.094;7.970;2023-05-03T12:23:44;1.87;;;1.77;;
2408;SDS011;8463;48.094;7.970;2023-05-03T12:26:11;2.20;;;2.00;;
2408;SDS011;8463;48.094;7.970;2023-05-03T12:28:36;2.50;;;2.30;;
2408;SDS011;8463;48.094;7.970;2023-05-03T12:31:02;2.07;;;1.83;;
2408;SDS011;8463;48.094;7.970;2023-05-03T12:33:28;3.97;;;2.77;;
2408;SDS011;8463;48.094;7.970;2023-05-03T12:35:56;2.33;;;2.13;;
2408;SDS011;8463;48.094;7.970;2023-05-03T12:38:22;2.77;;;1.80;;
2408;SDS011;8463;48.094;7.970;2023-05-03T12:40:48;2.80;;;2.50;;
2408;SDS011;8463;48.094;7.970;2023-05-03T12:43:16;2.30;;;2.07;;
2408;SDS011;8463;48.094;7.970;2023-05-03T12:45:45;2.67;;;2.47;;
2408;SDS011;8463;48.094;7.970;2023-05-03T12:48:11;1.70;;;1.60;;
2408;SDS011;8463;48.094;7.970;2023-05-03T12:50:37;1.97;;;1.87;;
2408;SDS011;8463;48.094;7.970;2023-05-03T12:53:02;2.87;;;2.00;;
2408;SDS011;8463;48.094;7.970;2023-05-03T12:55:28;2.87;;;2.60;;
2408;SDS011;8463;48.094;7.970;2023-05-03T12:57:58;2.00;;;1.90;;
2408;SDS011;8463;48.094;7.970;2023-05-03T13:00:27;2.53;;;2.33;;
2408;SDS011;8463;48.094;7.970;2023-05-03T13:02:52;2.87;;;2.40;;
2408;SDS011;8463;48.094;7.970;2023-05-03T13:05:19;2.60;;;2.40;;
2408;SDS011;8463;48.094;7.970;2023-05-03T13:07:45;2.17;;;1.97;;
2408;SDS011;8463;48.094;7.970;2023-05-03T13:10:15;2.60;;;2.33;;
2408;SDS011;8463;48.094;7.970;2023-05-03T13:12:42;2.50;;;2.30;;
2408;SDS011;8463;48.094;7.970;2023-05-03T13:15:08;3.33;;;2.60;;
2408;SDS011;8463;48.094;7.970;2023-05-03T13:17:34;3.60;;;2.43;;
2408;SDS011;8463;48.094;7.970;2023-05-03T13:20:00;2.73;;;2.40;;
2408;SDS011;8463;48.094;7.970;2023-05-03T13:22:32;4.10;;;2.40;;
2408;SDS011;8463;48.094;7.970;2023-05-03T13:24:59;2.67;;;2.43;;
2408;SDS011;8463;48.094;7.970;2023-05-03T13:27:36;2.27;;;2.07;;
2408;SDS011;8463;48.094;7.970;2023-05-03T13:30:07;4.30;;;2.37;;
2408;SDS011;8463;48.094;7.970;2023-05-03T13:32:34;4.53;;;2.30;;
2408;SDS011;8463;48.094;7.970;2023-05-03T13:35:00;2.60;;;2.40;;
2408;SDS011;8463;48.094;7.970;2023-05-03T13:37:26;3.67;;;2.60;;
2408;SDS011;8463;48.094;7.970;2023-05-03T13:39:51;2.30;;;2.00;;
2408;SDS011;8463;48.094;7.970;2023-05-03T13:42:19;2.77;;;2.57;;
2408;SDS011;8463;48.094;7.970;2023-05-03T13:44:53;2.63;;;2.33;;
2408;SDS011;8463;48.094;7.970;2023-05-03T13:47:18;2.70;;;2.23;;
2408;SDS011;8463;48.094;7.970;2023-05-03T13:49:44;2.73;;;2.53;;
2408;SDS011;8463;48.094;7.970;2023-05-03T13:52:10;2.97;;;2.30;;
2408;SDS011;8463;48.094;7.970;2023-05-03T13:54:38;3.07;;;2.70;;
2408;SDS011;8463;48.094;7.970;2023-05-03T13:57:07;3.43;;;2.10;;
2408;SDS011;8463;48.094;7.970;2023-05-03T13:59:32;2.93;;;2.70;;
2408;SDS011;8463;48.094;7.970;2023-05-03T14:02:03;2.50;;;2.30;;
2408;SDS011;8463;48.094;7.970;2023-05-03T14:04:28;4.83;;;2.70;;
2408;SDS011;8463;48.094;7.970;2023-05-03T14:06:58;3.20;;;2.53;;
2408;SDS011;8463;48.094;7.970;2023-05-03T14:09:30;2.67;;;2.47;;
2408;SDS011;8463;48.094;7.970;2023-05-03T14:11:55;3.40;;;2.37;;
2408;SDS011;8463;48.094;7.970;2023-05-03T14:14:21;2.40;;;2.30;;
2408;SDS011;8463;48.094;7.970;2023-05-03T14:16:53;2.73;;;2.13;;
2408;SDS011;8463;48.094;7.970;2023-05-03T14:19:20;2.90;;;2.70;;
2408;SDS011;8463;48.094;7.970;2023-05-03T14:21:46;3.43;;;2.20;;
2408;SDS011;8463;48.094;7.970;2023-05-03T14:24:16;2.80;;;2.60;;
2408;SDS011;8463;48.094;7.970;2023-05-03T14:26:42;3.30;;;3.00;;
2408;SDS011;8463;48.094;7.970;2023-05-03T14:29:08;6.17;;;2.60;;
2408;SDS011;8463;48.094;7.970;2023-05-03T14:31:33;2.37;;;2.17;;
2408;SDS011;8463;48.094;7.970;2023-05-03T14:34:00;3.03;;;2.70;;
2408;SDS011;8463;48.094;7.970;2023-05-03T14:36:27;3.83;;;2.80;;
2408;SDS011;8463;48.094;7.970;2023-05-03T14:39:07;2.40;;;2.20;;
2408;SDS011;8463;48.094;7.970;2023-05-03T14:41:33;2.50;;;2.30;;
2408;SDS011;8463;48.094;7.970;2023-05-03T14:44:03;2.77;;;2.57;;
2408;SDS011;8463;48.094;7.970;2023-05-03T14:46:29;2.50;;;2.30;;
2408;SDS011;8463;48.094;7.970;2023-05-03T14:48:57;2.63;;;2.43;;
2408;SDS011;8463;48.094;7.970;2023-05-03T14:51:23;2.83;;;2.63;;
2408;SDS011;8463;48.094;7.970;2023-05-03T14:53:50;2.57;;;2.37;;
2408;SDS011;8463;48.094;7.970;2023-05-03T14:56:22;2.50;;;2.30;;
2408;SDS011;8463;48.094;7.970;2023-05-03T14:58:48;2.70;;;2.47;;
2408;SDS011;8463;48.094;7.970;2023-05-03T15:01:20;5.67;;;5.03;;
2408;SDS011;8463;48.094;7.970;2023-05-03T15:03:46;3.10;;;2.90;;
2408;SDS011;8463;48.094;7.970;2023-05-03T15:06:12;3.93;;;3.63;;
2408;SDS011;8463;48.094;7.970;2023-05-03T15:08:38;2.10;;;2.00;;
2408;SDS011;8463;48.094;7.970;2023-05-03T15:11:04;3.93;;;3.10;;
2408;SDS011;8463;48.094;7.970;2023-05-03T15:13:31;3.27;;;3.03;;
2408;SDS011;8463;48.094;7.970;2023-05-03T15:15:57;3.10;;;2.80;;
2408;SDS011;8463;48.094;7.970;2023-05-03T15:18:24;2.50;;;2.30;;
2408;SDS011;8463;48.094;7.970;2023-05-03T15:20:51;3.53;;;3.23;;
2408;SDS011;8463;48.094;7.970;2023-05-03T15:23:19;2.43;;;2.23;;
2408;SDS011;8463;48.094;7.970;2023-05-03T15:25:45;2.40;;;2.20;;
2408;SDS011;8463;48.094;7.970;2023-05-03T15:28:11;4.33;;;2.67;;
2408;SDS011;8463;48.094;7.970;2023-05-03T15:30:36;4.10;;;3.13;;
2408;SDS011;8463;48.094;7.970;2023-05-03T15:33:02;3.10;;;2.90;;
2408;SDS011;8463;48.094;7.970;2023-05-03T15:35:30;3.20;;;2.40;;
2408;SDS011;8463;48.094;7.970;2023-05-03T15:37:56;3.10;;;2.80;;
2408;SDS011;8463;48.094;7.970;2023-05-03T15:40:22;2.30;;;2.10;;
2408;SDS011;8463;48.094;7.970;2023-05-03T15:42:50;4.60;;;2.67;;
2408;SDS011;8463;48.094;7.970;2023-05-03T15:45:16;3.23;;;2.93;;